Plainview, TX

8:46 AM CST on February 12, 2016 (GMT -0600)
Hale County

Weather History for KPVW - December, 2013

Change the Weather History Date:

Monday, December 30, 2013

  Actual Average Record
Temperature  
Mean Temperature 34 °F -  
Max Temperature 54 °F 49 °F 82 °F (1921)
Min Temperature 14 °F 23 °F 3 °F (1982)
Degree Days  
Heating Degree Days 31    
Moisture  
Dew Point 16 °F    
Average Humidity 60    
Maximum Humidity 83    
Minimum Humidity 24    
Precipitation  
Precipitation 0.00 in - - ()
Sea Level Pressure  
Sea Level Pressure 30.20 in    
Wind  
Wind Speed 7 mph (WNW)    
Max Wind Speed 18 mph    
Max Gust Speed 25 mph    
Visibility 10 miles    
Events      
Averages and records for this station are not official NWS values.
T = Trace of Precipitation, MM = Missing Value Source: NWS Daily Summary

Daily Weather History Graph

Daily Weather History Graph

Search for Another Location

Airport or City:

Trip Planner

Search our weather history database for the weather conditions in past years. The results will help you decide how hot, cold, wet, or windy it might be!

Date:

Astronomy

Dec. 30, 2013 Rise Set
Actual Time 7:52 AM CST 5:46 PM CST
Civil Twilight 7:24 AM CST 6:14 PM CST
Nautical Twilight 6:53 AM CST 6:46 PM CST
Astronomical Twilight 6:22 AM CST 7:16 PM CST
Moon 5:46 AM CST (12/30) 4:20 PM CST (12/30)
Length of Visible Light 10h 50m
Length of Day
9h 54m
Waning Crescent, 4% of the Moon is Illuminated
Dec 30
Waning Crescent
Jan 1
New
Jan 7
First Quarter
Jan 15
Full
Jan 23
Last Quarter

Hourly Weather History & Observations

Time (CST) Temp. Windchill Dew Point Humidity Pressure Visibility Wind Dir Wind Speed Gust Speed Precip Events Conditions
12:15 AM 14.9 °F 6.1 °F 10.0 °F 81% 30.20 in 10.0 mi WSW 5.8 mph - N/A   Clear
12:35 AM 14.9 °F 7.5 °F 9.9 °F 80% 30.20 in 10.0 mi WSW 4.6 mph - N/A   Clear
12:55 AM 14.9 °F 9.2 °F 10.0 °F 81% 30.18 in 10.0 mi SW 3.5 mph - N/A   Clear
1:15 AM 14.9 °F 6.1 °F 10.2 °F 82% 30.17 in 10.0 mi WSW 5.8 mph - N/A   Clear
1:35 AM 14.9 °F 9.2 °F 10.4 °F 82% 30.17 in 10.0 mi WSW 3.5 mph - N/A   Clear
1:55 AM 14.9 °F 5.0 °F 10.4 °F 82% 30.16 in 10.0 mi WSW 6.9 mph - N/A   Clear
2:15 AM 14.9 °F 5.0 °F 10.4 °F 82% 30.15 in 10.0 mi WSW 6.9 mph - N/A   Clear
2:35 AM 16.0 °F 6.3 °F 11.3 °F 82% 30.15 in 10.0 mi WSW 6.9 mph - N/A   Clear
2:55 AM 15.4 °F 8.1 °F 10.6 °F 81% 30.15 in 10.0 mi SW 4.6 mph - N/A   Clear
3:15 AM 16.2 °F 6.5 °F 11.3 °F 81% 30.15 in 10.0 mi WSW 6.9 mph - N/A   Clear
3:35 AM 16.2 °F 6.5 °F 11.3 °F 81% 30.14 in 10.0 mi WSW 6.9 mph - N/A   Clear
3:55 AM 16.2 °F 7.6 °F 11.8 °F 83% 30.13 in 10.0 mi SW 5.8 mph - N/A   Clear
4:15 AM 17.4 °F 8.0 °F 12.6 °F 81% 30.13 in 10.0 mi WSW 6.9 mph - N/A   Clear
4:35 AM 17.4 °F 7.1 °F 12.9 °F 83% 30.13 in 10.0 mi WSW 8.1 mph - N/A   Clear
4:55 AM 17.4 °F 7.1 °F 12.6 °F 81% 30.12 in 10.0 mi WSW 8.1 mph - N/A   Clear
5:15 AM 17.4 °F 9.1 °F 12.7 °F 82% 30.11 in 10.0 mi WSW 5.8 mph - N/A   Clear
5:35 AM 17.4 °F 9.1 °F 12.7 °F 82% 30.11 in 10.0 mi West 5.8 mph - N/A   Clear
5:55 AM 17.4 °F 9.1 °F 12.9 °F 83% 30.09 in 10.0 mi West 5.8 mph - N/A   Clear
6:15 AM 17.4 °F 9.1 °F 12.7 °F 82% 30.08 in 10.0 mi WSW 5.8 mph - N/A   Clear
6:35 AM 17.4 °F 9.1 °F 12.6 °F 81% 30.09 in 10.0 mi WSW 5.8 mph - N/A   Clear
6:55 AM 17.4 °F 9.1 °F 13.1 °F 83% 30.09 in 10.0 mi WSW 5.8 mph - N/A   Clear
7:15 AM 19.9 °F 11.1 °F 14.9 °F 81% 30.09 in 10.0 mi WSW 6.9 mph - N/A   Clear
7:35 AM 19.6 °F 10.6 °F 14.9 °F 82% 30.10 in 10.0 mi WSW 6.9 mph - N/A   Clear
7:55 AM 17.4 °F 10.4 °F 12.9 °F 83% 30.11 in 10.0 mi West 4.6 mph - N/A   Clear
8:15 AM 17.4 °F 9.1 °F 13.1 °F 83% 30.11 in 10.0 mi WSW 5.8 mph - N/A   Clear
8:35 AM 19.9 °F 14.9 °F 15.4 °F 83% 30.11 in 10.0 mi WSW 3.5 mph - N/A   Clear
8:55 AM 21.6 °F 16.8 °F 16.7 °F 82% 30.13 in 10.0 mi WSW 3.5 mph - N/A   Clear
9:15 AM 24.8 °F 19.1 °F 19.0 °F 79% 30.15 in 10.0 mi West 4.6 mph - N/A   Clear
9:35 AM 30.0 °F 21.7 °F 22.3 °F 73% 30.15 in 10.0 mi West 9.2 mph - N/A   Clear
9:55 AM 31.1 °F 23.1 °F 21.7 °F 68% 30.16 in 10.0 mi West 9.2 mph - N/A   Clear
10:15 AM 34.5 °F 26.2 °F 23.5 °F 64% 30.17 in 10.0 mi West 11.5 mph - N/A   Clear
10:35 AM 34.7 °F 26.9 °F 22.3 °F 61% 30.18 in 10.0 mi WNW 10.4 mph - N/A   Clear
10:55 AM 37.4 °F 30.3 °F 23.0 °F 56% 30.18 in 10.0 mi NW 10.4 mph - N/A   Clear
11:15 AM 39.2 °F 32.5 °F 23.5 °F 53% 30.18 in 10.0 mi NW 10.4 mph - N/A   Clear
11:35 AM 40.8 °F 35.6 °F 21.9 °F 47% 30.18 in 10.0 mi North 8.1 mph - N/A   Clear
11:55 AM 43.3 °F 37.7 °F 21.2 °F 41% 30.18 in 10.0 mi NNE 10.4 mph - N/A   Clear
12:15 PM 47.3 °F - 22.3 °F 37% 30.18 in 10.0 mi NNE 12.7 mph 16.1 mph N/A   Clear
12:35 PM 50.0 °F - 21.6 °F 33% 30.18 in 10.0 mi NNE 15.0 mph 19.6 mph N/A   Clear
12:55 PM 50.0 °F - 20.1 °F 31% 30.17 in 10.0 mi NNE 18.4 mph 23.0 mph N/A   Clear
1:15 PM 50.0 °F - 19.2 °F 30% 30.17 in 10.0 mi NNE 17.3 mph 25.3 mph N/A   Clear
1:35 PM 50.0 °F - 19.2 °F 30% 30.17 in 10.0 mi NE 13.8 mph - N/A   Clear
1:55 PM 50.7 °F - 19.4 °F 29% 30.18 in 10.0 mi NE 18.4 mph - N/A   Clear
2:15 PM 52.3 °F - 20.3 °F 28% 30.17 in 10.0 mi NE 17.3 mph 20.7 mph N/A   Clear
2:55 PM 54.5 °F - 20.8 °F 27% 30.18 in 10.0 mi NE 13.8 mph - N/A   Clear
3:15 PM 54.9 °F - 19.9 °F 26% 30.18 in 10.0 mi NNE 12.7 mph - N/A   Clear
3:35 PM 54.9 °F - 18.9 °F 24% 30.19 in 10.0 mi NNE 15.0 mph 19.6 mph N/A   Clear
3:55 PM 53.1 °F - 18.7 °F 26% 30.20 in 10.0 mi NE 15.0 mph - N/A   Clear
4:15 PM 52.3 °F - 18.1 °F 26% 30.21 in 10.0 mi NNE 13.8 mph - N/A   Clear
4:35 PM 50.4 °F - 17.2 °F 27% 30.21 in 10.0 mi NE 12.7 mph - N/A   Clear
4:55 PM 50.0 °F - 18.3 °F 29% 30.22 in 10.0 mi NE 10.4 mph - N/A   Clear
5:15 PM 50.0 °F - 18.3 °F 29% 30.23 in 10.0 mi NE 9.2 mph - N/A   Clear
5:35 PM 45.3 °F 42.3 °F 18.7 °F 35% 30.24 in 10.0 mi ENE 5.8 mph - N/A   Clear
5:55 PM 42.3 °F 39.4 °F 17.8 °F 37% 30.25 in 10.0 mi NE 4.6 mph - N/A   Clear
6:15 PM 39.9 °F 37.8 °F 16.7 °F 39% 30.27 in 10.0 mi NE 3.5 mph - N/A   Clear
6:35 PM 40.3 °F 38.2 °F 16.9 °F 39% 30.28 in 10.0 mi ENE 3.5 mph - N/A   Clear
6:55 PM 39.7 °F - 17.2 °F 40% 30.29 in 10.0 mi Calm Calm - N/A   Clear
7:15 PM 39.7 °F - 16.9 °F 40% 30.30 in 10.0 mi Calm Calm - N/A   Clear
7:35 PM 39.7 °F - 17.4 °F 41% 30.31 in 10.0 mi Calm Calm - N/A   Clear
7:55 PM 33.3 °F - 15.3 °F 48% 30.32 in 10.0 mi Calm Calm - N/A   Clear
8:15 PM 31.3 °F 26.6 °F 15.1 °F 51% 30.33 in 10.0 mi West 4.6 mph - N/A   Clear
8:35 PM 30.0 °F 26.5 °F 14.9 °F 53% 30.34 in 10.0 mi WNW 3.5 mph - N/A   Clear
8:55 PM 30.0 °F - 14.5 °F 53% 30.34 in 10.0 mi Calm Calm - N/A   Clear
9:15 PM 28.6 °F 24.8 °F 14.5 °F 56% 30.35 in 10.0 mi SW 3.5 mph - N/A   Clear
9:35 PM 28.6 °F - 14.4 °F 55% 30.35 in 10.0 mi Calm Calm - N/A   Clear
9:55 PM 25.2 °F - 13.6 °F 62% 30.36 in 10.0 mi Calm Calm - N/A   Clear
10:15 PM 22.6 °F - 11.8 °F 63% 30.36 in 10.0 mi Calm Calm - N/A   Clear
10:35 PM 22.3 °F 17.6 °F 12.0 °F 65% 30.36 in 10.0 mi West 3.5 mph - N/A   Clear
10:55 PM 22.5 °F 17.8 °F 12.2 °F 65% 30.36 in 10.0 mi WNW 3.5 mph - N/A   Clear
11:15 PM 22.5 °F 15.1 °F 12.2 °F 65% 30.36 in 10.0 mi West 5.8 mph - N/A   Clear
11:35 PM 22.5 °F 15.1 °F 13.1 °F 67% 30.36 in 10.0 mi WNW 5.8 mph - N/A   Clear
11:55 PM 21.2 °F 16.4 °F 12.4 °F 69% 30.36 in 10.0 mi West 3.5 mph - N/A   Clear